Time;durP1;ratioP1;P1;durP2;ratioP2;P2;SDS_P1;SDS_P2;PMS_P1;PMS_P2;Temp;Humidity;BMP_temperature;BMP_pressure;BME280_temperature;BME280_humidity;BME280_pressure;Samples;Min_cycle;Max_cycle;Signal;HPM_P1;HPM_P2
2020/12/21 00:01:05;;;;;;;18.42;11.88;;;9.10;79.60;;;;;;5025240;28;83281;-70
2020/12/21 00:03:31;;;;;;;17.15;10.13;;;9.10;79.50;;;;;;5005520;28;83623;-69
2020/12/21 00:05:57;;;;;;;19.33;10.50;;;9.10;79.40;;;;;;5006881;28;82533;-68
2020/12/21 00:08:23;;;;;;;17.58;10.73;;;9.20;79.40;;;;;;5025233;28;83030;-68
2020/12/21 00:10:51;;;;;;;20.27;11.82;;;9.20;79.40;;;;;;5024485;28;85445;-69
2020/12/21 00:13:17;;;;;;;21.15;12.55;;;9.20;79.30;;;;;;5006602;28;83125;-70
2020/12/21 00:15:43;;;;;;;21.35;12.48;;;9.30;79.30;;;;;;5025323;28;83209;-69
2020/12/21 00:18:09;;;;;;;18.27;12.02;;;9.20;79.30;;;;;;5025338;28;82448;-69
2020/12/21 00:20:35;;;;;;;23.05;12.90;;;9.20;79.30;;;;;;5025058;28;82852;-70
2020/12/21 00:23:00;;;;;;;20.45;12.75;;;9.20;79.30;;;;;;5024601;28;82532;-70
2020/12/21 00:25:26;;;;;;;21.17;13.23;;;9.20;79.40;;;;;;5006595;28;84779;-68
2020/12/21 00:27:52;;;;;;;19.25;13.15;;;9.20;79.40;;;;;;5025154;28;82735;-69
2020/12/21 00:30:18;;;;;;;21.58;13.25;;;9.20;79.30;;;;;;5024817;28;83194;-70
2020/12/21 00:32:43;;;;;;;21.45;13.63;;;9.20;79.30;;;;;;5006707;28;83866;-70
2020/12/21 00:35:09;;;;;;;22.50;13.38;;;9.20;79.30;;;;;;5004539;28;85935;-70
2020/12/21 00:37:35;;;;;;;20.95;14.10;;;9.20;79.30;;;;;;5006326;28;83000;-70
2020/12/21 00:40:00;;;;;;;22.77;12.32;;;9.20;79.50;;;;;;5005722;28;83644;-70
2020/12/21 00:42:26;;;;;;;22.80;13.88;;;9.20;79.40;;;;;;5024720;28;82541;-68
2020/12/21 00:44:52;;;;;;;23.02;13.60;;;9.20;79.40;;;;;;5024279;28;83229;-68
2020/12/21 00:47:18;;;;;;;30.98;18.02;;;9.20;79.40;;;;;;5024771;28;82728;-68
2020/12/21 00:49:43;;;;;;;20.75;13.43;;;9.20;79.40;;;;;;5024880;28;83252;-67
2020/12/21 00:52:09;;;;;;;19.40;12.15;;;9.20;79.40;;;;;;5024519;28;82874;-69
2020/12/21 00:54:35;;;;;;;21.33;12.70;;;9.20;79.40;;;;;;5024693;28;83167;-70
2020/12/21 00:57:00;;;;;;;21.23;14.07;;;9.30;79.40;;;;;;5005907;28;83007;-69
2020/12/21 00:59:26;;;;;;;21.70;12.93;;;9.30;79.30;;;;;;5024258;28;83268;-69
2020/12/21 01:01:52;;;;;;;23.10;13.48;;;9.30;79.30;;;;;;5024350;28;82855;-69
2020/12/21 01:04:18;;;;;;;27.25;13.95;;;9.40;79.20;;;;;;5005745;28;82495;-71
2020/12/21 01:06:43;;;;;;;20.00;13.10;;;9.30;79.20;;;;;;5005564;28;83008;-69
2020/12/21 01:09:12;;;;;;;24.45;14.32;;;9.30;79.20;;;;;;5005157;28;86077;-71
2020/12/21 01:11:38;;;;;;;19.85;13.25;;;9.30;79.20;;;;;;5005911;28;82560;-69
2020/12/21 01:14:04;;;;;;;19.48;12.15;;;9.30;79.20;;;;;;5005650;28;85556;-69
2020/12/21 01:16:30;;;;;;;17.38;11.57;;;9.30;79.20;;;;;;5006033;28;86075;-69
2020/12/21 01:18:55;;;;;;;18.48;10.70;;;9.30;79.20;;;;;;5005111;28;85444;-69
2020/12/21 01:21:31;;;;;;;17.13;11.25;;;9.30;79.20;;;;;;5005322;28;85002;-68
2020/12/21 01:23:58;;;;;;;18.52;11.73;;;9.30;79.10;;;;;;5023631;28;83125;-68
2020/12/21 01:26:25;;;;;;;21.42;11.73;;;9.30;79.10;;;;;;5024221;28;82921;-69
2020/12/21 01:28:51;;;;;;;18.90;12.13;;;9.30;79.20;;;;;;5005809;28;84866;-70
2020/12/21 01:31:18;;;;;;;19.45;12.88;;;9.30;79.10;;;;;;5023847;28;82756;-68
2020/12/21 01:33:45;;;;;;;20.67;12.60;;;9.40;79.20;;;;;;5004951;28;85747;-70
2020/12/21 01:36:10;;;;;;;17.35;11.32;;;9.40;79.10;;;;;;5023809;28;83376;-69
2020/12/21 01:38:36;;;;;;;21.05;12.15;;;9.40;79.00;;;;;;5023705;28;83231;-69
2020/12/21 01:41:02;;;;;;;18.52;11.68;;;9.50;79.00;;;;;;5023576;28;82894;-69
2020/12/21 01:43:28;;;;;;;15.85;10.95;;;9.50;78.90;;;;;;5023418;28;83240;-70
2020/12/21 01:45:53;;;;;;;21.50;12.65;;;9.50;78.80;;;;;;5024073;28;83037;-69
2020/12/21 01:48:20;;;;;;;18.30;12.10;;;9.50;78.90;;;;;;5023315;28;83224;-70
2020/12/21 01:50:46;;;;;;;22.88;10.88;;;9.50;78.80;;;;;;5023769;28;84122;-69
2020/12/21 01:53:12;;;;;;;18.98;10.45;;;9.60;78.80;;;;;;5004929;28;85940;-70
2020/12/21 01:55:40;;;;;;;15.95;9.82;;;9.60;78.70;;;;;;5024017;28;82592;-68
2020/12/21 01:58:07;;;;;;;16.02;10.90;;;9.70;78.60;;;;;;5026682;28;80640;-68
2020/12/21 02:00:33;;;;;;;19.15;9.60;;;9.70;78.50;;;;;;5023518;28;82501;-68
2020/12/21 02:02:59;;;;;;;17.60;9.38;;;9.70;78.60;;;;;;5008116;28;82408;-68
2020/12/21 02:05:25;;;;;;;11.55;6.22;;;9.60;78.70;;;;;;5007856;28;83282;-69
2020/12/21 02:07:52;;;;;;;7.00;5.22;;;9.70;78.80;;;;;;5026496;28;80739;-69
2020/12/21 02:10:19;;;;;;;7.88;5.20;;;9.70;78.80;;;;;;5026131;28;80102;-68
2020/12/21 02:12:44;;;;;;;5.45;3.78;;;9.70;78.70;;;;;;5007767;28;81932;-69
2020/12/21 02:15:10;;;;;;;7.85;4.63;;;9.60;78.90;;;;;;5026263;28;79895;-69
2020/12/21 02:17:36;;;;;;;6.22;3.83;;;9.50;79.10;;;;;;5025949;28;80408;-69
2020/12/21 02:20:03;;;;;;;7.05;4.18;;;9.50;79.30;;;;;;5006522;28;80240;-69
2020/12/21 02:22:29;;;;;;;7.18;4.13;;;9.50;79.40;;;;;;5025780;28;81363;-69
2020/12/21 02:24:54;;;;;;;7.55;4.45;;;9.50;79.40;;;;;;5026221;28;80143;-71
2020/12/21 02:27:20;;;;;;;6.18;4.07;;;9.60;79.40;;;;;;5025833;28;79849;-70
2020/12/21 02:29:47;;;;;;;6.15;4.07;;;9.60;79.30;;;;;;5007886;28;81863;-69
2020/12/21 02:32:13;;;;;;;10.68;4.50;;;9.60;79.40;;;;;;5007805;28;83578;-71
2020/12/21 02:34:39;;;;;;;8.40;4.18;;;9.60;79.40;;;;;;5007484;28;81472;-70
2020/12/21 02:37:04;;;;;;;10.65;6.30;;;9.60;79.50;;;;;;5025666;28;80543;-69
2020/12/21 02:39:30;;;;;;;18.55;11.18;;;9.60;79.50;;;;;;5007247;28;82376;-72
2020/12/21 02:41:56;;;;;;;18.95;9.77;;;9.60;79.40;;;;;;5004041;28;86751;-70
2020/12/21 02:44:22;;;;;;;17.88;10.60;;;9.60;79.20;;;;;;5025545;28;82769;-68
2020/12/21 02:46:47;;;;;;;16.60;10.27;;;9.60;79.10;;;;;;5008026;28;84281;-69
2020/12/21 02:49:13;;;;;;;16.92;10.45;;;9.50;79.10;;;;;;5008692;28;84894;-70
2020/12/21 02:51:39;;;;;;;17.02;11.07;;;9.60;78.90;;;;;;5026367;28;83212;-68
2020/12/21 02:54:05;;;;;;;22.13;11.23;;;9.50;78.90;;;;;;5026634;28;82768;-69
2020/12/21 02:56:30;;;;;;;18.63;11.25;;;9.60;78.80;;;;;;5025880;27;83225;-69
2020/12/21 02:58:56;;;;;;;21.75;11.60;;;9.60;78.70;;;;;;5026240;28;82776;-68
2020/12/21 03:01:22;;;;;;;16.55;10.00;;;9.60;78.60;;;;;;5026145;28;83177;-68
2020/12/21 03:03:48;;;;;;;18.65;11.88;;;9.50;78.50;;;;;;5025751;28;84148;-69
2020/12/21 03:06:13;;;;;;;22.30;10.80;;;9.50;78.50;;;;;;5026223;28;83700;-70
2020/12/21 03:08:39;;;;;;;20.83;11.30;;;9.60;78.40;;;;;;5025835;28;82798;-69
2020/12/21 03:11:09;;;;;;;22.27;10.18;;;9.60;78.30;;;;;;5026143;28;83342;-69
2020/12/21 03:13:35;;;;;;;15.02;8.95;;;9.60;78.30;;;;;;5006982;28;84260;-68
2020/12/21 03:16:01;;;;;;;17.73;9.27;;;9.60;78.30;;;;;;5010327;28;82139;-69
2020/12/21 03:18:27;;;;;;;17.30;9.07;;;9.60;78.30;;;;;;5029432;28;80727;-69
2020/12/21 03:20:52;;;;;;;15.35;10.00;;;9.60;78.30;;;;;;5010269;28;83793;-69
2020/12/21 03:23:18;;;;;;;16.52;9.65;;;9.60;78.30;;;;;;5026151;28;82477;-68
2020/12/21 03:25:44;;;;;;;15.45;8.60;;;9.60;78.40;;;;;;5010324;28;83738;-69
2020/12/21 03:28:10;;;;;;;15.40;9.65;;;9.60;78.40;;;;;;5028612;28;80361;-68
2020/12/21 03:30:35;;;;;;;15.45;8.70;;;9.60;78.40;;;;;;5010199;28;83205;-69
2020/12/21 03:33:01;;;;;;;15.70;8.27;;;9.70;78.30;;;;;;5028839;28;80333;-69
2020/12/21 03:35:27;;;;;;;14.88;8.25;;;9.70;78.40;;;;;;5028253;28;80355;-68
2020/12/21 03:37:53;;;;;;;14.60;8.45;;;9.60;78.50;;;;;;5028264;28;79855;-71
2020/12/21 03:40:19;;;;;;;14.02;8.55;;;9.60;78.50;;;;;;5028539;28;80626;-68
2020/12/21 03:42:44;;;;;;;17.48;9.07;;;9.70;78.50;;;;;;5028217;28;81410;-70
2020/12/21 03:45:10;;;;;;;13.10;8.20;;;9.70;78.50;;;;;;5028206;28;80837;-69
2020/12/21 03:47:36;;;;;;;14.90;8.40;;;9.70;78.60;;;;;;5010364;28;80191;-70
2020/12/21 03:50:02;;;;;;;12.05;7.30;;;9.70;78.70;;;;;;5009946;28;81546;-69
2020/12/21 03:52:28;;;;;;;11.77;6.55;;;9.70;78.70;;;;;;5028397;28;80376;-69
2020/12/21 03:54:53;;;;;;;12.48;6.47;;;9.70;78.80;;;;;;5027988;28;79778;-69
2020/12/21 03:57:19;;;;;;;11.00;6.40;;;9.70;78.90;;;;;;5007597;28;82547;-69
2020/12/21 03:59:45;;;;;;;14.40;5.93;;;9.80;78.90;;;;;;5028003;28;80688;-69
2020/12/21 04:02:10;;;;;;;10.20;6.03;;;9.70;79.00;;;;;;5009639;28;82395;-69
2020/12/21 04:04:36;;;;;;;9.93;5.80;;;9.70;79.30;;;;;;5009609;28;81730;-68
2020/12/21 04:07:02;;;;;;;12.18;5.80;;;9.70;79.40;;;;;;5009281;28;82181;-69
2020/12/21 04:09:28;;;;;;;8.95;5.55;;;9.70;79.60;;;;;;5028073;28;80616;-69
2020/12/21 04:11:53;;;;;;;12.80;5.50;;;9.70;79.80;;;;;;5027710;28;80162;-69
2020/12/21 04:14:19;;;;;;;9.75;5.07;;;9.60;80.00;;;;;;5007900;28;83058;-70
2020/12/21 04:16:45;;;;;;;10.02;5.55;;;9.60;80.20;;;;;;5008810;28;82215;-71
2020/12/21 04:19:11;;;;;;;15.02;8.52;;;9.60;80.30;;;;;;5027569;28;80577;-69
2020/12/21 04:21:36;;;;;;;15.68;9.35;;;9.70;80.20;;;;;;5009180;28;82634;-70
2020/12/21 04:24:02;;;;;;;15.32;10.27;;;9.70;79.90;;;;;;5008875;28;82701;-70
2020/12/21 04:26:28;;;;;;;18.08;11.15;;;9.70;79.60;;;;;;5005779;28;82825;-70
2020/12/21 04:28:54;;;;;;;19.55;10.20;;;9.70;79.40;;;;;;5024569;28;83233;-71
2020/12/21 04:31:19;;;;;;;23.15;9.60;;;9.70;79.30;;;;;;5024843;28;82796;-70
2020/12/21 04:33:45;;;;;;;17.20;10.45;;;9.70;79.10;;;;;;5026891;28;80555;-70
2020/12/21 04:36:12;;;;;;;16.52;10.05;;;9.70;79.00;;;;;;5006289;28;82688;-70
2020/12/21 04:38:43;;;;;;;15.93;10.00;;;9.70;78.90;;;;;;5024728;28;83179;-70
2020/12/21 04:41:10;;;;;;;18.35;9.27;;;9.70;79.00;;;;;;5024562;28;83062;-70
2020/12/21 04:43:37;;;;;;;16.13;9.93;;;9.70;78.90;;;;;;5009020;28;80860;-70
2020/12/21 04:46:08;;;;;;;16.70;10.55;;;9.60;78.80;;;;;;5027251;28;80160;-70
2020/12/21 04:48:40;;;;;;;15.52;9.23;;;9.60;78.80;;;;;;5025132;28;83870;-71
2020/12/21 04:51:08;;;;;;;23.67;10.98;;;9.60;78.90;;;;;;5009343;28;81917;-68
2020/12/21 04:53:34;;;;;;;18.90;11.77;;;9.60;78.90;;;;;;5024236;28;83260;-72
2020/12/21 04:56:00;;;;;;;19.38;11.15;;;9.60;78.90;;;;;;5006317;28;83690;-69
2020/12/21 04:58:26;;;;;;;20.65;10.45;;;9.60;78.90;;;;;;5005885;28;83371;-71
2020/12/21 05:00:52;;;;;;;19.20;11.73;;;9.50;79.00;;;;;;5024469;28;82806;-70
2020/12/21 05:03:19;;;;;;;20.30;10.50;;;9.60;79.10;;;;;;5005581;28;83218;-69
2020/12/21 05:05:45;;;;;;;24.38;11.07;;;9.60;79.20;;;;;;5024532;28;82692;-67
2020/12/21 05:08:12;;;;;;;20.30;11.65;;;9.50;79.20;;;;;;5022853;28;83578;-68
2020/12/21 05:10:40;;;;;;;18.35;10.70;;;9.60;79.30;;;;;;5024524;28;82781;-68
2020/12/21 05:13:06;;;;;;;23.05;11.52;;;9.60;79.40;;;;;;5024379;28;82771;-69
2020/12/21 05:15:33;;;;;;;21.17;11.73;;;9.50;79.40;;;;;;5005712;28;85783;-69
2020/12/21 05:18:07;;;;;;;23.45;12.18;;;9.60;79.60;;;;;;5005905;28;83916;-69
2020/12/21 05:20:34;;;;;;;20.85;11.95;;;9.50;79.80;;;;;;5023972;28;83363;-69
2020/12/21 05:23:01;;;;;;;20.85;12.55;;;9.50;79.90;;;;;;5024062;28;83050;-69
2020/12/21 05:25:27;;;;;;;22.33;12.35;;;9.50;79.90;;;;;;5024110;28;82672;-70
2020/12/21 05:27:53;;;;;;;21.77;12.88;;;9.50;79.90;;;;;;5024596;28;82484;-68
2020/12/21 05:30:18;;;;;;;22.25;12.63;;;9.60;80.00;;;;;;5023917;28;85007;-70
2020/12/21 05:32:44;;;;;;;21.83;12.75;;;9.50;80.00;;;;;;5005790;28;84655;-70
2020/12/21 05:35:11;;;;;;;21.85;12.45;;;9.50;80.10;;;;;;5005817;28;82984;-70
2020/12/21 05:37:41;;;;;;;22.60;13.38;;;9.50;80.20;;;;;;5005186;28;85604;-69
2020/12/21 05:40:08;;;;;;;25.17;12.38;;;9.50;80.20;;;;;;5005401;28;84975;-70
2020/12/21 05:42:36;;;;;;;25.77;12.60;;;9.50;80.10;;;;;;5024118;28;83128;-69
2020/12/21 05:45:07;;;;;;;22.85;13.10;;;9.50;80.20;;;;;;5024501;28;82869;-70
2020/12/21 05:47:33;;;;;;;27.92;14.73;;;9.50;80.30;;;;;;5024187;28;83177;-70
2020/12/21 05:50:02;;;;;;;27.23;13.70;;;9.60;80.30;;;;;;5023792;28;82786;-70
2020/12/21 05:52:36;;;;;;;26.50;14.60;;;9.60;80.30;;;;;;5023710;28;83166;-70
2020/12/21 05:55:08;;;;;;;31.65;14.13;;;9.60;80.40;;;;;;5023416;28;82596;-68
2020/12/21 05:57:35;;;;;;;27.33;14.80;;;9.60;80.30;;;;;;5023567;28;83173;-69
2020/12/21 06:00:03;;;;;;;26.10;15.13;;;9.60;80.30;;;;;;5023597;28;82598;-69
2020/12/21 06:02:32;;;;;;;28.98;15.98;;;9.60;80.30;;;;;;5023746;28;83415;-69
2020/12/21 06:05:01;;;;;;;26.88;14.95;;;9.60;80.50;;;;;;5005360;28;85636;-70
2020/12/21 06:07:29;;;;;;;27.50;14.43;;;9.60;80.50;;;;;;5023558;28;83657;-69
2020/12/21 06:09:58;;;;;;;35.72;16.73;;;9.60;80.50;;;;;;5023330;28;84073;-69
2020/12/21 06:12:24;;;;;;;30.35;15.38;;;9.60;80.40;;;;;;5005242;28;86651;-69
2020/12/21 06:14:56;;;;;;;30.77;16.30;;;9.60;80.30;;;;;;5023481;28;83413;-70
2020/12/21 06:17:22;;;;;;;31.45;16.90;;;9.60;80.40;;;;;;5023523;28;83334;-69
2020/12/21 06:19:48;;;;;;;27.58;15.18;;;9.60;80.50;;;;;;5025501;28;82382;-70
2020/12/21 06:22:24;;;;;;;33.85;16.70;;;9.60;80.50;;;;;;5026951;28;83364;-69
2020/12/21 06:24:50;;;;;;;33.85;16.70;;;9.60;80.50;;;;;;5026949;28;82670;-70
2020/12/21 06:27:16;;;;;;;26.48;16.15;;;9.60;80.40;;;;;;5026985;28;83221;-70
2020/12/21 06:29:42;;;;;;;37.78;16.77;;;9.70;80.40;;;;;;5026663;28;82822;-70
2020/12/21 06:32:09;;;;;;;33.88;16.98;;;9.60;80.20;;;;;;5026626;28;83729;-69
2020/12/21 06:34:37;;;;;;;35.28;17.55;;;9.60;80.20;;;;;;5026810;28;82466;-74
2020/12/21 06:37:08;;;;;;;30.85;16.73;;;9.60;80.20;;;;;;5026684;28;83273;-70
2020/12/21 06:39:35;;;;;;;35.03;17.30;;;9.60;80.30;;;;;;5026716;28;82956;-72
2020/12/21 06:42:09;;;;;;;32.97;16.35;;;9.70;80.30;;;;;;5008074;28;84687;-73
2020/12/21 06:44:38;;;;;;;31.65;15.80;;;9.70;80.40;;;;;;5026635;28;82863;-71
2020/12/21 06:47:05;;;;;;;34.83;15.50;;;9.70;80.40;;;;;;5026914;28;83221;-73
2020/12/21 06:49:31;;;;;;;31.13;15.65;;;9.70;80.40;;;;;;5008217;28;84428;-74
2020/12/21 06:51:57;;;;;;;34.70;14.38;;;9.70;80.30;;;;;;5026407;28;83891;-73
2020/12/21 06:54:22;;;;;;;27.60;14.60;;;9.70;80.20;;;;;;5026443;28;82896;-77
2020/12/21 06:56:49;;;;;;;26.30;12.57;;;9.70;80.30;;;;;;5008208;28;86719;-83
2020/12/21 06:59:17;;;;;;;37.63;17.75;;;9.70;80.20;;;;;;5008407;28;85557;-75
2020/12/21 07:01:48;;;;;;;26.65;12.30;;;9.60;80.30;;;;;;5026455;28;83186;-71
2020/12/21 07:04:14;;;;;;;23.90;13.35;;;9.70;80.30;;;;;;5026068;28;84178;-70
2020/12/21 07:06:41;;;;;;;27.30;12.63;;;9.60;80.30;;;;;;5026539;28;83664;-72
2020/12/21 07:09:08;;;;;;;21.25;11.40;;;9.60;80.30;;;;;;5026537;28;83033;-68
2020/12/21 07:11:34;;;;;;;20.10;11.13;;;9.60;80.30;;;;;;5018368;28;84257;-62
2020/12/21 07:14:00;;;;;;;24.83;10.93;;;9.70;80.20;;;;;;5007235;28;83960;-62
2020/12/21 07:16:26;;;;;;;19.90;11.55;;;9.60;80.20;;;;;;5011885;28;83876;-66
2020/12/21 07:18:52;;;;;;;31.48;10.45;;;9.60;80.20;;;;;;4994057;28;85933;-63
2020/12/21 07:21:18;;;;;;;22.25;10.52;;;9.70;80.30;;;;;;4993785;28;85590;-66
2020/12/21 07:23:45;;;;;;;19.33;8.75;;;9.70;80.20;;;;;;5011515;28;83467;-67
2020/12/21 07:26:13;;;;;;;27.48;9.30;;;9.70;80.20;;;;;;5013344;28;80491;-66
2020/12/21 07:28:40;;;;;;;23.08;9.60;;;9.70;80.00;;;;;;5014276;28;80382;-68
2020/12/21 07:31:08;;;;;;;22.02;10.52;;;9.80;80.00;;;;;;5013882;28;82767;-65
2020/12/21 07:33:35;;;;;;;21.42;9.38;;;9.70;80.00;;;;;;5010796;28;83400;-65
2020/12/21 07:36:02;;;;;;;20.48;8.57;;;9.70;79.90;;;;;;4995560;28;81709;-68
2020/12/21 07:38:28;;;;;;;23.35;10.68;;;9.70;79.90;;;;;;5013963;28;81086;-66
2020/12/21 07:40:55;;;;;;;19.75;9.48;;;9.80;79.90;;;;;;5011255;28;84182;-67
2020/12/21 07:43:29;;;;;;;21.30;9.88;;;9.80;79.90;;;;;;5012853;28;82829;-68
2020/12/21 07:46:08;;;;;;;17.48;8.00;;;9.80;79.70;;;;;;5013046;28;81684;-65
2020/12/21 07:48:35;;;;;;;21.55;8.77;;;9.80;79.60;;;;;;5013862;28;80158;-65
2020/12/21 07:51:03;;;;;;;23.45;9.57;;;9.80;79.60;;;;;;5013755;28;81245;-66
2020/12/21 07:53:34;;;;;;;24.77;9.45;;;9.90;79.60;;;;;;5012125;28;81970;-66
2020/12/21 07:56:00;;;;;;;22.23;9.15;;;9.80;79.50;;;;;;4994763;28;83692;-68
2020/12/21 07:58:26;;;;;;;23.90;7.80;;;9.80;79.40;;;;;;5013817;28;82301;-67
2020/12/21 08:00:58;;;;;;;26.15;10.05;;;9.80;79.30;;;;;;5012660;28;80574;-67
2020/12/21 08:03:26;;;;;;;28.52;9.57;;;9.80;79.40;;;;;;4992603;28;82803;-66
2020/12/21 08:06:10;;;;;;;22.48;10.45;;;9.80;79.50;;;;;;5010640;28;83385;-64
2020/12/21 08:08:37;;;;;;;26.45;10.40;;;9.80;79.40;;;;;;5006750;28;84368;-66
2020/12/21 08:11:04;;;;;;;29.90;11.35;;;9.80;79.40;;;;;;5010311;28;84329;-65
2020/12/21 08:13:30;;;;;;;23.38;9.45;;;9.80;79.40;;;;;;5011195;28;83953;-67
2020/12/21 08:16:06;;;;;;;20.92;9.23;;;9.80;79.50;;;;;;5012866;28;81157;-66
2020/12/21 08:18:32;;;;;;;19.30;8.50;;;9.80;79.60;;;;;;5013264;28;81482;-66
2020/12/21 08:20:57;;;;;;;22.58;9.32;;;9.80;79.60;;;;;;5013212;28;81916;-67
2020/12/21 08:23:27;;;;;;;23.75;10.23;;;9.90;79.50;;;;;;5013035;28;81509;-65
2020/12/21 08:25:54;;;;;;;21.58;8.25;;;9.90;79.40;;;;;;5009540;28;84460;-66
2020/12/21 08:28:27;;;;;;;22.52;9.52;;;9.90;79.40;;;;;;5012731;28;81693;-66
2020/12/21 08:31:12;;;;;;;;;;;9.90;79.40;;;;;;4994098;28;83118;-65
2020/12/21 08:33:41;;;;;;;24.40;9.50;;;9.90;79.40;;;;;;5016421;28;81660;-64
2020/12/21 08:36:25;;;;;;;34.20;12.68;;;9.90;79.50;;;;;;5011959;28;81013;-66
2020/12/21 08:38:52;;;;;;;34.45;12.55;;;10.00;79.40;;;;;;5009844;28;84129;-66
2020/12/21 08:41:19;;;;;;;28.67;11.23;;;10.00;79.50;;;;;;5009690;28;84447;-66
2020/12/21 08:43:45;;;;;;;36.00;12.60;;;10.10;79.50;;;;;;5008949;28;84666;-65
2020/12/21 08:46:12;;;;;;;39.47;13.23;;;10.10;79.40;;;;;;5009704;28;83978;-66
2020/12/21 08:48:43;;;;;;;27.38;11.07;;;10.10;79.30;;;;;;5010463;28;84761;-65
2020/12/21 08:51:10;;;;;;;39.22;15.35;;;10.20;79.30;;;;;;5010288;28;84072;-65
2020/12/21 08:53:36;;;;;;;37.63;13.48;;;10.10;79.30;;;;;;5009816;28;83987;-64
2020/12/21 08:56:20;;;;;;;32.22;13.70;;;10.20;79.30;;;;;;5009291;28;85101;-64
2020/12/21 08:58:46;;;;;;;28.83;12.85;;;10.20;79.30;;;;;;4992172;28;86248;-66
2020/12/21 09:01:11;;;;;;;34.10;13.63;;;10.20;79.30;;;;;;5010476;28;84264;-64
2020/12/21 09:03:37;;;;;;;33.35;15.52;;;10.30;79.30;;;;;;5010908;28;83855;-66
2020/12/21 09:06:03;;;;;;;36.75;14.65;;;10.40;79.20;;;;;;4991603;28;86608;-63
2020/12/21 09:08:29;;;;;;;33.35;14.70;;;10.40;79.00;;;;;;5011168;28;84079;-65
2020/12/21 09:10:55;;;;;;;31.67;14.70;;;10.30;79.00;;;;;;5009725;28;84433;-63
2020/12/21 09:13:21;;;;;;;39.38;17.70;;;10.30;79.10;;;;;;5009620;28;83635;-65
2020/12/21 09:15:46;;;;;;;44.30;16.55;;;10.30;79.20;;;;;;4991798;28;85701;-65
2020/12/21 09:18:14;;;;;;;33.83;16.38;;;10.40;79.10;;;;;;5009861;28;84756;-63
2020/12/21 09:20:42;;;;;;;40.10;17.77;;;10.30;79.20;;;;;;5008939;28;84324;-64
2020/12/21 09:23:08;;;;;;;42.92;16.30;;;10.30;79.30;;;;;;5009374;28;84306;-65
2020/12/21 09:25:34;;;;;;;31.00;15.18;;;10.40;79.40;;;;;;4992203;28;85305;-65
2020/12/21 09:28:00;;;;;;;40.15;13.13;;;10.40;79.30;;;;;;5008016;28;84728;-64
2020/12/21 09:30:25;;;;;;;32.85;14.63;;;10.40;79.30;;;;;;5007194;28;83402;-63
2020/12/21 09:32:51;;;;;;;37.47;15.20;;;10.40;79.40;;;;;;5009086;28;84363;-64
2020/12/21 09:35:17;;;;;;;35.38;15.52;;;10.40;79.40;;;;;;4991164;28;86834;-65
2020/12/21 09:37:43;;;;;;;31.05;14.20;;;10.40;79.30;;;;;;5009271;28;83913;-66
2020/12/21 09:40:08;;;;;;;35.30;14.93;;;10.40;79.20;;;;;;4991561;28;84519;-66
2020/12/21 09:42:34;;;;;;;49.45;15.65;;;10.40;79.30;;;;;;4990726;28;84601;-65
2020/12/21 09:45:00;;;;;;;36.92;14.68;;;10.50;79.20;;;;;;5008774;28;84949;-64
2020/12/21 09:47:25;;;;;;;37.35;14.48;;;10.50;79.20;;;;;;4990629;28;85605;-65
2020/12/21 09:49:51;;;;;;;32.50;14.77;;;10.50;79.10;;;;;;5009245;28;83670;-65
2020/12/21 09:52:17;;;;;;;31.10;16.55;;;10.60;78.90;;;;;;5009684;28;84073;-66
2020/12/21 09:54:43;;;;;;;36.67;15.05;;;10.70;78.80;;;;;;4989943;28;84125;-66
2020/12/21 09:57:08;;;;;;;40.28;15.20;;;10.80;78.60;;;;;;5008777;28;84126;-66
2020/12/21 09:59:34;;;;;;;35.70;13.63;;;10.80;78.30;;;;;;5005152;28;84034;-65
2020/12/21 10:02:04;;;;;;;30.20;13.90;;;10.90;77.90;;;;;;4998733;28;84028;-65
2020/12/21 10:04:30;;;;;;;27.98;13.90;;;10.90;77.60;;;;;;4997870;28;84014;-65
2020/12/21 10:06:56;;;;;;;30.40;13.77;;;10.90;77.50;;;;;;5003624;28;83757;-65
2020/12/21 10:09:21;;;;;;;27.17;14.52;;;10.90;77.50;;;;;;4980441;28;85081;-65
2020/12/21 10:11:50;;;;;;;29.92;12.90;;;10.90;77.50;;;;;;4994814;28;83799;-66
2020/12/21 10:14:16;;;;;;;34.45;12.57;;;10.90;77.50;;;;;;5006947;28;84122;-64
2020/12/21 10:16:42;;;;;;;33.42;14.70;;;10.90;77.50;;;;;;4990173;28;84096;-64
2020/12/21 10:19:07;;;;;;;29.75;14.20;;;10.90;77.40;;;;;;4998957;28;84653;-63
2020/12/21 10:21:33;;;;;;;30.45;15.57;;;10.90;77.30;;;;;;5002677;28;83962;-64
2020/12/21 10:23:59;;;;;;;36.22;13.93;;;11.00;77.30;;;;;;4998136;28;84383;-64
2020/12/21 10:26:25;;;;;;;27.70;13.85;;;11.10;77.00;;;;;;4989078;28;83600;-64
2020/12/21 10:28:50;;;;;;;33.13;14.18;;;11.20;76.70;;;;;;5000510;28;84389;-68
2020/12/21 10:31:16;;;;;;;29.50;13.25;;;11.30;76.30;;;;;;4979963;28;86247;-65
2020/12/21 10:33:42;;;;;;;29.45;13.05;;;11.30;76.20;;;;;;4975533;28;83802;-64
2020/12/21 10:36:12;;;;;;;27.88;12.75;;;11.20;76.30;;;;;;4979818;28;84513;-66
2020/12/21 10:38:38;;;;;;;22.95;11.52;;;11.10;76.50;;;;;;4996889;28;84653;-66
2020/12/21 10:41:04;;;;;;;21.88;11.65;;;11.10;76.50;;;;;;5003517;28;83706;-65
2020/12/21 10:43:29;;;;;;;29.63;12.00;;;11.10;76.70;;;;;;4988514;28;84473;-64
2020/12/21 10:45:55;;;;;;;27.55;11.82;;;11.00;76.70;;;;;;4989681;28;84245;-64
2020/12/21 10:48:21;;;;;;;37.63;13.88;;;11.10;76.70;;;;;;5000449;28;84813;-64
2020/12/21 10:50:46;;;;;;;29.15;12.20;;;11.30;76.50;;;;;;4998253;28;83785;-64
2020/12/21 10:53:12;;;;;;;26.48;11.73;;;11.40;76.20;;;;;;4998021;28;84643;-65
2020/12/21 10:55:38;;;;;;;26.15;12.13;;;11.40;75.80;;;;;;4998272;28;84156;-64
2020/12/21 10:58:04;;;;;;;29.98;11.55;;;11.60;75.40;;;;;;5008923;28;83804;-64
2020/12/21 11:00:30;;;;;;;29.48;13.30;;;11.70;75.00;;;;;;4990669;28;85540;-67
2020/12/21 11:02:55;;;;;;;24.88;12.40;;;11.80;74.80;;;;;;5008949;28;84111;-64
2020/12/21 11:05:21;;;;;;;22.60;11.80;;;11.90;74.80;;;;;;5008037;28;83480;-64
2020/12/21 11:07:47;;;;;;;23.73;10.27;;;11.90;74.60;;;;;;5009619;28;84888;-65
2020/12/21 11:10:13;;;;;;;29.77;11.52;;;11.90;74.30;;;;;;5011177;28;83030;-64
2020/12/21 11:12:38;;;;;;;26.35;11.27;;;11.90;74.40;;;;;;5011738;28;84537;-66
2020/12/21 11:15:05;;;;;;;20.98;10.65;;;11.90;74.50;;;;;;4993905;28;84058;-66
2020/12/21 11:17:30;;;;;;;26.75;10.75;;;11.90;74.50;;;;;;5011576;28;84433;-64
2020/12/21 11:19:58;;;;;;;26.42;11.43;;;12.00;74.30;;;;;;5011776;28;83872;-64
2020/12/21 11:22:23;;;;;;;18.90;10.38;;;12.00;74.00;;;;;;5011696;28;83990;-65
2020/12/21 11:24:49;;;;;;;25.65;11.23;;;12.00;73.90;;;;;;5012293;28;83687;-65
2020/12/21 11:27:17;;;;;;;24.27;9.88;;;12.00;73.90;;;;;;5012293;28;83957;-65
2020/12/21 11:29:43;;;;;;;21.02;9.40;;;12.00;73.70;;;;;;4996454;28;84159;-66
2020/12/21 11:32:09;;;;;;;20.00;9.07;;;12.00;73.70;;;;;;5014751;28;82181;-65
2020/12/21 11:34:34;;;;;;;25.80;9.82;;;12.00;73.70;;;;;;5014568;28;81240;-64
2020/12/21 11:37:00;;;;;;;27.42;10.00;;;11.90;73.80;;;;;;4995605;28;82658;-66
2020/12/21 11:39:26;;;;;;;19.25;9.77;;;11.90;73.70;;;;;;5011821;28;83767;-66
2020/12/21 11:41:51;;;;;;;22.73;9.70;;;11.90;73.80;;;;;;4995994;28;82113;-67
2020/12/21 11:44:17;;;;;;;23.10;9.50;;;11.90;73.80;;;;;;5014476;28;81873;-65
2020/12/21 11:46:43;;;;;;;15.57;8.43;;;11.90;73.80;;;;;;5014397;28;82273;-65
2020/12/21 11:49:09;;;;;;;20.95;9.73;;;12.00;73.60;;;;;;5014910;28;81153;-65
2020/12/21 11:51:34;;;;;;;19.25;8.98;;;11.90;73.70;;;;;;5014004;28;81545;-65
2020/12/21 11:54:00;;;;;;;20.88;8.38;;;11.90;73.70;;;;;;5014034;28;81722;-65
2020/12/21 11:56:26;;;;;;;21.38;8.63;;;12.00;73.60;;;;;;4995510;28;83803;-65
2020/12/21 11:58:51;;;;;;;17.23;8.50;;;12.00;73.50;;;;;;4995925;28;83312;-65
2020/12/21 12:01:18;;;;;;;18.05;9.27;;;12.00;73.40;;;;;;4996019;28;82765;-64
2020/12/21 12:03:45;;;;;;;20.80;9.57;;;12.00;73.40;;;;;;5014318;28;82084;-64
2020/12/21 12:06:11;;;;;;;18.55;10.15;;;12.10;73.40;;;;;;5013958;28;81539;-65
2020/12/21 12:08:37;;;;;;;18.27;9.35;;;12.20;73.30;;;;;;5009803;28;83189;-65
2020/12/21 12:11:03;;;;;;;18.30;8.75;;;12.30;72.80;;;;;;5012379;28;81517;-66
2020/12/21 12:13:29;;;;;;;25.85;10.85;;;12.50;72.50;;;;;;5011918;28;81548;-66
2020/12/21 12:15:54;;;;;;;27.52;11.85;;;12.50;72.10;;;;;;4991543;28;85175;-66
2020/12/21 12:18:20;;;;;;;27.35;11.25;;;12.50;72.10;;;;;;5011027;28;84694;-65
2020/12/21 12:20:46;;;;;;;24.55;9.77;;;12.40;72.30;;;;;;4991984;28;83933;-66
2020/12/21 12:23:12;;;;;;;19.05;9.38;;;12.40;72.60;;;;;;5013419;28;83550;-65
2020/12/21 12:25:37;;;;;;;17.27;9.30;;;12.40;72.80;;;;;;5013125;28;82172;-65
2020/12/21 12:28:03;;;;;;;22.92;9.35;;;12.30;72.90;;;;;;5013288;28;81028;-64
2020/12/21 12:30:29;;;;;;;20.98;11.38;;;12.30;72.80;;;;;;5013332;28;81644;-65
2020/12/21 12:32:55;;;;;;;17.80;9.93;;;12.30;73.00;;;;;;5011356;28;84750;-65
2020/12/21 12:35:20;;;;;;;18.63;8.88;;;12.20;73.30;;;;;;5013144;28;82215;-64